Archway, United Kingdom
Current Conditions -  °F | °C
As of 1:20 PM on Tuesday 21 Oct 2014 (Local Time) from EGLC Reporting Station
Few Clouds Few Clouds  
Wind Chill: 55°   Ceiling: Unl
Heat Index: 55°   Visibility: 6mi
Dew Point: 41°   Wind: 28mph
Humidity: 58%   Direction: 280°W
Pressure: 29.71"   Gusts: NA
Location:  51.57°N, 0.12°W
Report Text: EGLC 211220Z 28024KT 9999 FEW042 13/05 Q1006
Loading
Personal Weather Stations






























Interactive Weather Map
Tropical Storm Tracking
New forecast layout! Learn more

10-Day Weather Forecast

Advertisements
Track Severe Weather on mobile